sensor_id;sensor_type;location;lat;lon;timestamp;P1;durP1;ratioP1;P2;durP2;ratioP2
4837;SDS011;2433;48.768;9.154;2023-01-26T00:01:26;37.77;;;17.07;;
4837;SDS011;2433;48.768;9.154;2023-01-26T00:03:56;36.67;;;17.33;;
4837;SDS011;2433;48.768;9.154;2023-01-26T00:06:21;34.15;;;16.52;;
4837;SDS011;2433;48.768;9.154;2023-01-26T00:08:49;35.42;;;16.83;;
4837;SDS011;2433;48.768;9.154;2023-01-26T00:11:16;38.03;;;16.60;;
4837;SDS011;2433;48.768;9.154;2023-01-26T00:13:44;33.92;;;14.82;;
4837;SDS011;2433;48.768;9.154;2023-01-26T00:16:13;33.13;;;15.97;;
4837;SDS011;2433;48.768;9.154;2023-01-26T00:18:39;35.25;;;16.38;;
4837;SDS011;2433;48.768;9.154;2023-01-26T00:21:06;33.35;;;16.65;;
4837;SDS011;2433;48.768;9.154;2023-01-26T00:23:35;36.10;;;17.35;;
4837;SDS011;2433;48.768;9.154;2023-01-26T00:26:01;34.05;;;17.48;;
4837;SDS011;2433;48.768;9.154;2023-01-26T00:28:27;32.60;;;16.43;;
4837;SDS011;2433;48.768;9.154;2023-01-26T00:30:53;33.38;;;16.27;;
4837;SDS011;2433;48.768;9.154;2023-01-26T00:33:25;30.70;;;15.30;;
4837;SDS011;2433;48.768;9.154;2023-01-26T00:35:54;36.60;;;14.60;;
4837;SDS011;2433;48.768;9.154;2023-01-26T00:38:19;28.80;;;14.00;;
4837;SDS011;2433;48.768;9.154;2023-01-26T00:40:45;26.73;;;13.80;;
4837;SDS011;2433;48.768;9.154;2023-01-26T00:43:12;37.97;;;17.02;;
4837;SDS011;2433;48.768;9.154;2023-01-26T00:45:39;34.10;;;16.20;;
4837;SDS011;2433;48.768;9.154;2023-01-26T00:48:05;36.20;;;15.93;;
4837;SDS011;2433;48.768;9.154;2023-01-26T00:50:31;37.85;;;15.18;;
4837;SDS011;2433;48.768;9.154;2023-01-26T00:52:57;31.33;;;16.75;;
4837;SDS011;2433;48.768;9.154;2023-01-26T00:55:23;32.20;;;14.67;;
4837;SDS011;2433;48.768;9.154;2023-01-26T00:57:54;26.42;;;13.77;;
4837;SDS011;2433;48.768;9.154;2023-01-26T01:00:19;33.10;;;16.10;;
4837;SDS011;2433;48.768;9.154;2023-01-26T01:02:45;34.60;;;16.13;;
4837;SDS011;2433;48.768;9.154;2023-01-26T01:05:10;34.83;;;16.33;;
4837;SDS011;2433;48.768;9.154;2023-01-26T01:07:36;29.20;;;15.57;;
4837;SDS011;2433;48.768;9.154;2023-01-26T01:10:02;30.90;;;15.70;;
4837;SDS011;2433;48.768;9.154;2023-01-26T01:12:27;29.90;;;15.47;;
4837;SDS011;2433;48.768;9.154;2023-01-26T01:14:53;30.40;;;13.40;;
4837;SDS011;2433;48.768;9.154;2023-01-26T01:17:19;32.20;;;17.10;;
4837;SDS011;2433;48.768;9.154;2023-01-26T01:19:44;30.60;;;16.60;;
4837;SDS011;2433;48.768;9.154;2023-01-26T01:22:11;28.27;;;15.82;;
4837;SDS011;2433;48.768;9.154;2023-01-26T01:24:36;29.13;;;15.40;;
4837;SDS011;2433;48.768;9.154;2023-01-26T01:27:02;34.10;;;16.50;;
4837;SDS011;2433;48.768;9.154;2023-01-26T01:29:28;30.23;;;16.57;;
4837;SDS011;2433;48.768;9.154;2023-01-26T01:31:54;38.67;;;16.73;;
4837;SDS011;2433;48.768;9.154;2023-01-26T01:34:19;37.43;;;16.23;;
4837;SDS011;2433;48.768;9.154;2023-01-26T01:36:45;34.60;;;16.20;;
4837;SDS011;2433;48.768;9.154;2023-01-26T01:39:10;28.47;;;15.67;;
4837;SDS011;2433;48.768;9.154;2023-01-26T01:41:36;40.37;;;15.10;;
4837;SDS011;2433;48.768;9.154;2023-01-26T01:44:15;35.67;;;17.37;;
4837;SDS011;2433;48.768;9.154;2023-01-26T01:46:50;29.13;;;15.23;;
4837;SDS011;2433;48.768;9.154;2023-01-26T01:49:19;31.42;;;14.48;;
4837;SDS011;2433;48.768;9.154;2023-01-26T01:51:48;29.98;;;13.52;;
4837;SDS011;2433;48.768;9.154;2023-01-26T01:54:21;31.83;;;14.10;;
4837;SDS011;2433;48.768;9.154;2023-01-26T01:56:52;26.55;;;14.57;;
4837;SDS011;2433;48.768;9.154;2023-01-26T01:59:21;29.05;;;14.32;;
4837;SDS011;2433;48.768;9.154;2023-01-26T02:01:48;30.87;;;13.40;;
4837;SDS011;2433;48.768;9.154;2023-01-26T02:04:15;31.15;;;14.88;;
4837;SDS011;2433;48.768;9.154;2023-01-26T02:06:52;32.90;;;15.00;;
4837;SDS011;2433;48.768;9.154;2023-01-26T02:09:20;29.52;;;12.48;;
4837;SDS011;2433;48.768;9.154;2023-01-26T02:12:14;24.15;;;13.35;;
4837;SDS011;2433;48.768;9.154;2023-01-26T02:14:42;25.10;;;13.00;;
4837;SDS011;2433;48.768;9.154;2023-01-26T02:17:08;31.67;;;14.40;;
4837;SDS011;2433;48.768;9.154;2023-01-26T02:25:00;34.97;;;14.75;;
4837;SDS011;2433;48.768;9.154;2023-01-26T02:27:31;30.50;;;12.90;;
4837;SDS011;2433;48.768;9.154;2023-01-26T02:29:56;21.43;;;13.07;;
4837;SDS011;2433;48.768;9.154;2023-01-26T02:32:23;23.58;;;12.30;;
4837;SDS011;2433;48.768;9.154;2023-01-26T02:34:54;30.50;;;12.43;;
4837;SDS011;2433;48.768;9.154;2023-01-26T02:37:21;25.08;;;12.10;;
4837;SDS011;2433;48.768;9.154;2023-01-26T02:39:48;23.90;;;10.93;;
4837;SDS011;2433;48.768;9.154;2023-01-26T02:42:30;31.55;;;12.65;;
4837;SDS011;2433;48.768;9.154;2023-01-26T02:45:15;32.65;;;13.82;;
4837;SDS011;2433;48.768;9.154;2023-01-26T02:47:43;22.67;;;12.27;;
4837;SDS011;2433;48.768;9.154;2023-01-26T02:50:09;24.17;;;12.10;;
4837;SDS011;2433;48.768;9.154;2023-01-26T02:52:36;27.50;;;12.15;;
4837;SDS011;2433;48.768;9.154;2023-01-26T02:55:18;24.33;;;11.18;;
4837;SDS011;2433;48.768;9.154;2023-01-26T02:57:47;22.48;;;11.68;;
4837;SDS011;2433;48.768;9.154;2023-01-26T03:00:22;22.25;;;9.85;;
4837;SDS011;2433;48.768;9.154;2023-01-26T03:02:51;24.00;;;13.05;;
4837;SDS011;2433;48.768;9.154;2023-01-26T03:05:18;29.73;;;15.57;;
4837;SDS011;2433;48.768;9.154;2023-01-26T03:07:44;26.60;;;11.25;;
4837;SDS011;2433;48.768;9.154;2023-01-26T03:10:10;34.30;;;13.20;;
4837;SDS011;2433;48.768;9.154;2023-01-26T03:12:36;27.67;;;11.77;;
4837;SDS011;2433;48.768;9.154;2023-01-26T03:15:02;26.57;;;12.70;;
4837;SDS011;2433;48.768;9.154;2023-01-26T03:17:46;27.35;;;12.30;;
4837;SDS011;2433;48.768;9.154;2023-01-26T03:20:12;28.27;;;12.80;;
4837;SDS011;2433;48.768;9.154;2023-01-26T03:22:56;27.50;;;11.30;;
4837;SDS011;2433;48.768;9.154;2023-01-26T03:25:41;23.88;;;12.05;;
4837;SDS011;2433;48.768;9.154;2023-01-26T03:28:28;25.17;;;12.68;;
4837;SDS011;2433;48.768;9.154;2023-01-26T03:30:55;21.20;;;11.02;;
4837;SDS011;2433;48.768;9.154;2023-01-26T03:33:22;22.85;;;9.48;;
4837;SDS011;2433;48.768;9.154;2023-01-26T03:35:50;26.38;;;11.93;;
4837;SDS011;2433;48.768;9.154;2023-01-26T03:38:20;17.55;;;8.25;;
4837;SDS011;2433;48.768;9.154;2023-01-26T03:40:48;20.77;;;10.02;;
4837;SDS011;2433;48.768;9.154;2023-01-26T03:43:32;25.35;;;10.75;;
4837;SDS011;2433;48.768;9.154;2023-01-26T03:46:17;24.88;;;8.82;;
4837;SDS011;2433;48.768;9.154;2023-01-26T03:49:03;14.70;;;7.53;;
4837;SDS011;2433;48.768;9.154;2023-01-26T03:51:51;21.33;;;9.48;;
4837;SDS011;2433;48.768;9.154;2023-01-26T03:54:36;23.17;;;10.07;;
4837;SDS011;2433;48.768;9.154;2023-01-26T03:57:20;20.55;;;10.93;;
4837;SDS011;2433;48.768;9.154;2023-01-26T03:59:46;25.90;;;11.55;;
4837;SDS011;2433;48.768;9.154;2023-01-26T04:02:17;22.48;;;11.18;;
4837;SDS011;2433;48.768;9.154;2023-01-26T04:05:02;24.75;;;11.60;;
4837;SDS011;2433;48.768;9.154;2023-01-26T04:07:51;24.25;;;10.48;;
4837;SDS011;2433;48.768;9.154;2023-01-26T04:10:35;26.88;;;11.52;;
4837;SDS011;2433;48.768;9.154;2023-01-26T04:13:02;30.42;;;13.20;;
4837;SDS011;2433;48.768;9.154;2023-01-26T04:15:51;20.88;;;10.57;;
4837;SDS011;2433;48.768;9.154;2023-01-26T04:18:36;22.60;;;11.80;;
4837;SDS011;2433;48.768;9.154;2023-01-26T04:21:20;28.38;;;12.35;;
4837;SDS011;2433;48.768;9.154;2023-01-26T04:23:57;20.30;;;11.23;;
4837;SDS011;2433;48.768;9.154;2023-01-26T04:26:23;25.48;;;11.25;;
4837;SDS011;2433;48.768;9.154;2023-01-26T04:28:50;24.05;;;10.23;;
4837;SDS011;2433;48.768;9.154;2023-01-26T04:31:16;27.20;;;11.95;;
4837;SDS011;2433;48.768;9.154;2023-01-26T04:33:44;22.92;;;8.05;;
4837;SDS011;2433;48.768;9.154;2023-01-26T04:36:10;15.70;;;7.57;;
4837;SDS011;2433;48.768;9.154;2023-01-26T04:38:40;23.08;;;11.10;;
4837;SDS011;2433;48.768;9.154;2023-01-26T04:41:05;20.43;;;8.87;;
4837;SDS011;2433;48.768;9.154;2023-01-26T04:43:38;20.33;;;8.68;;
4837;SDS011;2433;48.768;9.154;2023-01-26T04:46:05;28.63;;;11.30;;
4837;SDS011;2433;48.768;9.154;2023-01-26T04:48:33;24.90;;;10.45;;
4837;SDS011;2433;48.768;9.154;2023-01-26T04:51:00;20.60;;;9.20;;
4837;SDS011;2433;48.768;9.154;2023-01-26T04:53:28;27.60;;;12.85;;
4837;SDS011;2433;48.768;9.154;2023-01-26T04:55:58;22.65;;;11.57;;
4837;SDS011;2433;48.768;9.154;2023-01-26T04:58:24;19.80;;;9.50;;
4837;SDS011;2433;48.768;9.154;2023-01-26T05:00:51;17.98;;;9.73;;
4837;SDS011;2433;48.768;9.154;2023-01-26T05:03:18;20.90;;;10.02;;
4837;SDS011;2433;48.768;9.154;2023-01-26T05:05:44;19.90;;;10.43;;
4837;SDS011;2433;48.768;9.154;2023-01-26T05:08:12;24.48;;;10.10;;
4837;SDS011;2433;48.768;9.154;2023-01-26T05:10:38;13.07;;;8.50;;
4837;SDS011;2433;48.768;9.154;2023-01-26T05:13:18;26.40;;;11.23;;
4837;SDS011;2433;48.768;9.154;2023-01-26T05:16:22;26.58;;;11.57;;
4837;SDS011;2433;48.768;9.154;2023-01-26T05:19:00;27.00;;;12.35;;
4837;SDS011;2433;48.768;9.154;2023-01-26T05:21:45;21.38;;;10.40;;
4837;SDS011;2433;48.768;9.154;2023-01-26T05:24:11;26.75;;;12.10;;
4837;SDS011;2433;48.768;9.154;2023-01-26T05:27:00;24.45;;;10.10;;
4837;SDS011;2433;48.768;9.154;2023-01-26T05:29:50;13.20;;;7.35;;
4837;SDS011;2433;48.768;9.154;2023-01-26T05:32:17;16.80;;;7.90;;
4837;SDS011;2433;48.768;9.154;2023-01-26T05:34:43;20.08;;;9.82;;
4837;SDS011;2433;48.768;9.154;2023-01-26T05:37:09;19.13;;;7.95;;
4837;SDS011;2433;48.768;9.154;2023-01-26T05:39:37;14.20;;;7.75;;
4837;SDS011;2433;48.768;9.154;2023-01-26T05:42:05;17.52;;;7.80;;
4837;SDS011;2433;48.768;9.154;2023-01-26T05:44:47;19.27;;;8.02;;
4837;SDS011;2433;48.768;9.154;2023-01-26T05:47:14;11.40;;;7.45;;
4837;SDS011;2433;48.768;9.154;2023-01-26T05:49:41;15.80;;;8.98;;
4837;SDS011;2433;48.768;9.154;2023-01-26T05:52:13;17.35;;;9.05;;
4837;SDS011;2433;48.768;9.154;2023-01-26T05:54:40;13.43;;;6.50;;
4837;SDS011;2433;48.768;9.154;2023-01-26T05:57:09;20.50;;;9.53;;
4837;SDS011;2433;48.768;9.154;2023-01-26T05:59:39;16.60;;;8.13;;
4837;SDS011;2433;48.768;9.154;2023-01-26T06:02:08;16.80;;;6.80;;
4837;SDS011;2433;48.768;9.154;2023-01-26T06:04:36;15.35;;;8.07;;
4837;SDS011;2433;48.768;9.154;2023-01-26T06:07:02;13.30;;;7.17;;
4837;SDS011;2433;48.768;9.154;2023-01-26T06:09:32;16.05;;;7.50;;
4837;SDS011;2433;48.768;9.154;2023-01-26T06:12:25;16.10;;;7.78;;
4837;SDS011;2433;48.768;9.154;2023-01-26T06:14:56;21.55;;;9.95;;
4837;SDS011;2433;48.768;9.154;2023-01-26T06:17:32;13.32;;;8.20;;
4837;SDS011;2433;48.768;9.154;2023-01-26T06:20:01;16.75;;;8.07;;
4837;SDS011;2433;48.768;9.154;2023-01-26T06:22:29;18.58;;;11.05;;
4837;SDS011;2433;48.768;9.154;2023-01-26T06:24:57;14.63;;;6.63;;
4837;SDS011;2433;48.768;9.154;2023-01-26T06:27:23;16.93;;;8.60;;
4837;SDS011;2433;48.768;9.154;2023-01-26T06:29:50;16.65;;;10.90;;
4837;SDS011;2433;48.768;9.154;2023-01-26T06:32:15;18.70;;;8.20;;
4837;SDS011;2433;48.768;9.154;2023-01-26T06:34:43;25.23;;;13.15;;
4837;SDS011;2433;48.768;9.154;2023-01-26T06:37:08;24.10;;;13.50;;
4837;SDS011;2433;48.768;9.154;2023-01-26T06:39:37;20.67;;;8.77;;
4837;SDS011;2433;48.768;9.154;2023-01-26T06:42:03;22.53;;;10.57;;
4837;SDS011;2433;48.768;9.154;2023-01-26T06:44:29;22.05;;;11.95;;
4837;SDS011;2433;48.768;9.154;2023-01-26T06:46:54;20.37;;;9.77;;
4837;SDS011;2433;48.768;9.154;2023-01-26T06:49:21;15.77;;;9.75;;
4837;SDS011;2433;48.768;9.154;2023-01-26T06:54:25;20.77;;;11.48;;
4837;SDS011;2433;48.768;9.154;2023-01-26T06:57:19;18.15;;;9.85;;
4837;SDS011;2433;48.768;9.154;2023-01-26T07:00:02;15.85;;;7.88;;
4837;SDS011;2433;48.768;9.154;2023-01-26T07:02:46;21.73;;;9.98;;
4837;SDS011;2433;48.768;9.154;2023-01-26T07:05:12;18.77;;;9.82;;
4837;SDS011;2433;48.768;9.154;2023-01-26T07:07:38;23.53;;;11.70;;
4837;SDS011;2433;48.768;9.154;2023-01-26T07:10:03;24.43;;;9.60;;
4837;SDS011;2433;48.768;9.154;2023-01-26T07:12:41;22.65;;;10.93;;
4837;SDS011;2433;48.768;9.154;2023-01-26T07:15:07;24.33;;;12.30;;
4837;SDS011;2433;48.768;9.154;2023-01-26T07:17:34;18.52;;;9.65;;
4837;SDS011;2433;48.768;9.154;2023-01-26T07:20:00;17.50;;;10.00;;
4837;SDS011;2433;48.768;9.154;2023-01-26T07:22:26;22.10;;;10.52;;
4837;SDS011;2433;48.768;9.154;2023-01-26T07:24:51;17.00;;;9.07;;
4837;SDS011;2433;48.768;9.154;2023-01-26T07:27:18;27.17;;;10.23;;
4837;SDS011;2433;48.768;9.154;2023-01-26T07:29:44;21.33;;;11.10;;
4837;SDS011;2433;48.768;9.154;2023-01-26T07:32:10;14.50;;;9.65;;
4837;SDS011;2433;48.768;9.154;2023-01-26T07:34:36;17.50;;;9.10;;
4837;SDS011;2433;48.768;9.154;2023-01-26T07:37:02;18.13;;;9.13;;
4837;SDS011;2433;48.768;9.154;2023-01-26T07:39:29;21.02;;;11.60;;
4837;SDS011;2433;48.768;9.154;2023-01-26T07:41:55;18.27;;;8.60;;
4837;SDS011;2433;48.768;9.154;2023-01-26T07:44:39;23.92;;;10.57;;
4837;SDS011;2433;48.768;9.154;2023-01-26T07:47:04;17.50;;;9.50;;
4837;SDS011;2433;48.768;9.154;2023-01-26T07:49:30;23.70;;;11.10;;
4837;SDS011;2433;48.768;9.154;2023-01-26T07:51:56;19.60;;;9.77;;
4837;SDS011;2433;48.768;9.154;2023-01-26T07:54:21;27.43;;;11.83;;
4837;SDS011;2433;48.768;9.154;2023-01-26T07:56:50;15.80;;;7.70;;
4837;SDS011;2433;48.768;9.154;2023-01-26T07:59:17;16.00;;;8.30;;
4837;SDS011;2433;48.768;9.154;2023-01-26T08:01:42;21.70;;;10.90;;
4837;SDS011;2433;48.768;9.154;2023-01-26T08:04:08;19.83;;;10.77;;
4837;SDS011;2433;48.768;9.154;2023-01-26T08:06:34;16.67;;;9.40;;
4837;SDS011;2433;48.768;9.154;2023-01-26T08:08:59;17.67;;;9.20;;
4837;SDS011;2433;48.768;9.154;2023-01-26T08:11:25;19.23;;;8.63;;
4837;SDS011;2433;48.768;9.154;2023-01-26T08:13:51;15.33;;;9.93;;
4837;SDS011;2433;48.768;9.154;2023-01-26T08:16:16;13.47;;;6.40;;
4837;SDS011;2433;48.768;9.154;2023-01-26T08:18:43;18.67;;;9.23;;
4837;SDS011;2433;48.768;9.154;2023-01-26T08:21:11;17.80;;;8.77;;
4837;SDS011;2433;48.768;9.154;2023-01-26T08:23:40;15.20;;;9.32;;
4837;SDS011;2433;48.768;9.154;2023-01-26T08:26:07;19.13;;;9.23;;
4837;SDS011;2433;48.768;9.154;2023-01-26T08:28:35;12.27;;;6.70;;
4837;SDS011;2433;48.768;9.154;2023-01-26T08:31:03;14.23;;;6.15;;
4837;SDS011;2433;48.768;9.154;2023-01-26T08:33:43;13.45;;;8.43;;
4837;SDS011;2433;48.768;9.154;2023-01-26T08:36:10;15.30;;;8.80;;
4837;SDS011;2433;48.768;9.154;2023-01-26T08:38:36;12.65;;;8.35;;
4837;SDS011;2433;48.768;9.154;2023-01-26T08:41:02;12.60;;;7.47;;
4837;SDS011;2433;48.768;9.154;2023-01-26T08:43:28;8.77;;;5.90;;
4837;SDS011;2433;48.768;9.154;2023-01-26T08:45:54;12.90;;;6.63;;
4837;SDS011;2433;48.768;9.154;2023-01-26T08:48:20;15.87;;;8.70;;
4837;SDS011;2433;48.768;9.154;2023-01-26T08:50:46;12.47;;;6.67;;
4837;SDS011;2433;48.768;9.154;2023-01-26T08:53:11;23.30;;;9.77;;
4837;SDS011;2433;48.768;9.154;2023-01-26T08:55:38;11.43;;;7.60;;
4837;SDS011;2433;48.768;9.154;2023-01-26T08:58:03;18.00;;;8.03;;
4837;SDS011;2433;48.768;9.154;2023-01-26T09:00:29;18.77;;;9.40;;
4837;SDS011;2433;48.768;9.154;2023-01-26T09:02:58;14.70;;;7.33;;
4837;SDS011;2433;48.768;9.154;2023-01-26T09:05:33;11.88;;;6.10;;
4837;SDS011;2433;48.768;9.154;2023-01-26T09:08:01;12.98;;;7.05;;
4837;SDS011;2433;48.768;9.154;2023-01-26T09:10:27;17.92;;;8.60;;
4837;SDS011;2433;48.768;9.154;2023-01-26T09:12:53;15.40;;;8.47;;
4837;SDS011;2433;48.768;9.154;2023-01-26T09:15:18;11.57;;;6.70;;
4837;SDS011;2433;48.768;9.154;2023-01-26T09:17:47;13.70;;;7.33;;
4837;SDS011;2433;48.768;9.154;2023-01-26T09:20:13;14.65;;;7.38;;
4837;SDS011;2433;48.768;9.154;2023-01-26T09:22:38;13.03;;;7.97;;
4837;SDS011;2433;48.768;9.154;2023-01-26T09:25:04;13.83;;;7.60;;
4837;SDS011;2433;48.768;9.154;2023-01-26T09:27:31;17.17;;;7.70;;
4837;SDS011;2433;48.768;9.154;2023-01-26T09:29:57;10.25;;;6.13;;
4837;SDS011;2433;48.768;9.154;2023-01-26T09:32:22;14.60;;;7.53;;
4837;SDS011;2433;48.768;9.154;2023-01-26T09:34:48;14.97;;;7.30;;
4837;SDS011;2433;48.768;9.154;2023-01-26T09:37:14;14.00;;;7.10;;
4837;SDS011;2433;48.768;9.154;2023-01-26T09:39:39;14.47;;;7.13;;
4837;SDS011;2433;48.768;9.154;2023-01-26T09:44:45;11.82;;;6.90;;
4837;SDS011;2433;48.768;9.154;2023-01-26T09:47:20;11.77;;;6.68;;
4837;SDS011;2433;48.768;9.154;2023-01-26T09:49:55;10.02;;;6.57;;
4837;SDS011;2433;48.768;9.154;2023-01-26T09:55:02;12.05;;;6.30;;
4837;SDS011;2433;48.768;9.154;2023-01-26T09:57:34;15.57;;;6.22;;
4837;SDS011;2433;48.768;9.154;2023-01-26T10:00:14;16.70;;;7.78;;
4837;SDS011;2433;48.768;9.154;2023-01-26T10:09:12;17.55;;;7.70;;
4837;SDS011;2433;48.768;9.154;2023-01-26T10:17:42;9.02;;;5.68;;
4837;SDS011;2433;48.768;9.154;2023-01-26T10:20:05;16.33;;;6.57;;
4837;SDS011;2433;48.768;9.154;2023-01-26T10:25:18;13.85;;;7.28;;
4837;SDS011;2433;48.768;9.154;2023-01-26T10:27:51;11.45;;;6.18;;
4837;SDS011;2433;48.768;9.154;2023-01-26T10:30:18;12.83;;;7.07;;
4837;SDS011;2433;48.768;9.154;2023-01-26T10:32:44;10.93;;;6.07;;
4837;SDS011;2433;48.768;9.154;2023-01-26T10:35:16;10.75;;;6.25;;
4837;SDS011;2433;48.768;9.154;2023-01-26T10:37:44;13.23;;;6.90;;
4837;SDS011;2433;48.768;9.154;2023-01-26T10:40:10;11.25;;;5.82;;
4837;SDS011;2433;48.768;9.154;2023-01-26T10:42:37;12.68;;;6.57;;
4837;SDS011;2433;48.768;9.154;2023-01-26T10:45:04;5.97;;;3.90;;
4837;SDS011;2433;48.768;9.154;2023-01-26T10:48:01;8.68;;;4.80;;
4837;SDS011;2433;48.768;9.154;2023-01-26T10:50:44;7.30;;;4.43;;
4837;SDS011;2433;48.768;9.154;2023-01-26T10:53:15;9.68;;;6.10;;
4837;SDS011;2433;48.768;9.154;2023-01-26T10:55:43;9.18;;;5.50;;
4837;SDS011;2433;48.768;9.154;2023-01-26T10:58:57;12.20;;;5.95;;
4837;SDS011;2433;48.768;9.154;2023-01-26T11:01:20;7.97;;;5.25;;
4837;SDS011;2433;48.768;9.154;2023-01-26T11:06:29;11.02;;;5.43;;
4837;SDS011;2433;48.768;9.154;2023-01-26T11:09:08;12.00;;;6.70;;
4837;SDS011;2433;48.768;9.154;2023-01-26T11:12:10;10.45;;;5.50;;
4837;SDS011;2433;48.768;9.154;2023-01-26T11:14:42;12.38;;;5.57;;
4837;SDS011;2433;48.768;9.154;2023-01-26T11:17:24;14.68;;;6.50;;
4837;SDS011;2433;48.768;9.154;2023-01-26T11:19:56;16.48;;;6.32;;
4837;SDS011;2433;48.768;9.154;2023-01-26T11:30:43;15.75;;;8.63;;
4837;SDS011;2433;48.768;9.154;2023-01-26T11:38:43;16.95;;;9.98;;
4837;SDS011;2433;48.768;9.154;2023-01-26T11:41:38;16.20;;;7.78;;
4837;SDS011;2433;48.768;9.154;2023-01-26T11:47:09;13.98;;;7.22;;
4837;SDS011;2433;48.768;9.154;2023-01-26T11:55:13;19.00;;;10.45;;
4837;SDS011;2433;48.768;9.154;2023-01-26T11:57:53;12.38;;;8.18;;
4837;SDS011;2433;48.768;9.154;2023-01-26T12:00:46;11.70;;;5.50;;
4837;SDS011;2433;48.768;9.154;2023-01-26T12:03:19;16.90;;;8.07;;
4837;SDS011;2433;48.768;9.154;2023-01-26T12:05:51;20.52;;;9.98;;
4837;SDS011;2433;48.768;9.154;2023-01-26T12:08:24;16.92;;;5.43;;
4837;SDS011;2433;48.768;9.154;2023-01-26T12:10:58;10.90;;;6.95;;
4837;SDS011;2433;48.768;9.154;2023-01-26T12:13:46;14.68;;;6.72;;
4837;SDS011;2433;48.768;9.154;2023-01-26T12:22:23;15.52;;;5.13;;
4837;SDS011;2433;48.768;9.154;2023-01-26T12:24:50;8.88;;;5.80;;
4837;SDS011;2433;48.768;9.154;2023-01-26T12:27:43;13.43;;;6.80;;
4837;SDS011;2433;48.768;9.154;2023-01-26T12:30:25;12.80;;;6.22;;
4837;SDS011;2433;48.768;9.154;2023-01-26T12:32:57;14.85;;;7.03;;
4837;SDS011;2433;48.768;9.154;2023-01-26T12:38:02;8.52;;;4.90;;
4837;SDS011;2433;48.768;9.154;2023-01-26T12:40:39;14.65;;;6.28;;
4837;SDS011;2433;48.768;9.154;2023-01-26T12:43:21;8.55;;;4.80;;
4837;SDS011;2433;48.768;9.154;2023-01-26T12:46:07;13.13;;;5.47;;
4837;SDS011;2433;48.768;9.154;2023-01-26T12:48:37;8.57;;;5.50;;
4837;SDS011;2433;48.768;9.154;2023-01-26T12:56:48;13.13;;;8.32;;
4837;SDS011;2433;48.768;9.154;2023-01-26T12:59:20;10.85;;;6.13;;
4837;SDS011;2433;48.768;9.154;2023-01-26T13:01:50;16.13;;;9.10;;
4837;SDS011;2433;48.768;9.154;2023-01-26T13:04:15;12.33;;;7.23;;
4837;SDS011;2433;48.768;9.154;2023-01-26T13:06:41;16.47;;;7.77;;
4837;SDS011;2433;48.768;9.154;2023-01-26T13:09:20;11.20;;;5.00;;
4837;SDS011;2433;48.768;9.154;2023-01-26T13:11:49;14.35;;;9.63;;
4837;SDS011;2433;48.768;9.154;2023-01-26T13:16:52;14.77;;;9.13;;
4837;SDS011;2433;48.768;9.154;2023-01-26T13:20:13;14.20;;;7.30;;
4837;SDS011;2433;48.768;9.154;2023-01-26T13:24:48;11.90;;;5.72;;
4837;SDS011;2433;48.768;9.154;2023-01-26T13:27:27;12.52;;;6.95;;
4837;SDS011;2433;48.768;9.154;2023-01-26T13:29:55;12.40;;;7.22;;
4837;SDS011;2433;48.768;9.154;2023-01-26T13:34:47;12.33;;;7.53;;
4837;SDS011;2433;48.768;9.154;2023-01-26T13:48:45;12.88;;;5.72;;
4837;SDS011;2433;48.768;9.154;2023-01-26T13:51:18;11.02;;;6.63;;
4837;SDS011;2433;48.768;9.154;2023-01-26T13:56:37;19.55;;;8.70;;
4837;SDS011;2433;48.768;9.154;2023-01-26T13:59:10;11.65;;;6.65;;
4837;SDS011;2433;48.768;9.154;2023-01-26T14:01:41;13.65;;;6.53;;
4837;SDS011;2433;48.768;9.154;2023-01-26T14:04:11;11.30;;;6.05;;
4837;SDS011;2433;48.768;9.154;2023-01-26T14:12:19;12.45;;;6.85;;
4837;SDS011;2433;48.768;9.154;2023-01-26T14:14:49;11.95;;;7.38;;
4837;SDS011;2433;48.768;9.154;2023-01-26T14:19:49;12.57;;;7.88;;
4837;SDS011;2433;48.768;9.154;2023-01-26T14:22:15;18.70;;;11.53;;
4837;SDS011;2433;48.768;9.154;2023-01-26T14:24:46;13.30;;;7.28;;
4837;SDS011;2433;48.768;9.154;2023-01-26T14:30:01;17.30;;;9.73;;
4837;SDS011;2433;48.768;9.154;2023-01-26T14:32:47;11.88;;;5.82;;
4837;SDS011;2433;48.768;9.154;2023-01-26T14:35:17;13.88;;;7.63;;
4837;SDS011;2433;48.768;9.154;2023-01-26T14:37:46;15.80;;;7.88;;
4837;SDS011;2433;48.768;9.154;2023-01-26T14:40:20;12.67;;;6.37;;
4837;SDS011;2433;48.768;9.154;2023-01-26T14:42:48;15.55;;;10.50;;
4837;SDS011;2433;48.768;9.154;2023-01-26T14:45:14;14.18;;;6.88;;
4837;SDS011;2433;48.768;9.154;2023-01-26T14:47:40;17.77;;;6.87;;
4837;SDS011;2433;48.768;9.154;2023-01-26T14:53:12;18.88;;;9.55;;
4837;SDS011;2433;48.768;9.154;2023-01-26T14:55:49;15.07;;;7.50;;
4837;SDS011;2433;48.768;9.154;2023-01-26T14:58:33;16.27;;;8.32;;
4837;SDS011;2433;48.768;9.154;2023-01-26T15:00:59;14.30;;;8.05;;
4837;SDS011;2433;48.768;9.154;2023-01-26T15:06:05;17.58;;;8.32;;
4837;SDS011;2433;48.768;9.154;2023-01-26T15:08:38;13.38;;;6.88;;
4837;SDS011;2433;48.768;9.154;2023-01-26T15:11:04;12.70;;;7.20;;
4837;SDS011;2433;48.768;9.154;2023-01-26T15:13:53;17.20;;;8.27;;
4837;SDS011;2433;48.768;9.154;2023-01-26T15:16:23;19.60;;;9.25;;
4837;SDS011;2433;48.768;9.154;2023-01-26T15:18:59;13.52;;;6.43;;
4837;SDS011;2433;48.768;9.154;2023-01-26T15:21:36;19.42;;;8.27;;
4837;SDS011;2433;48.768;9.154;2023-01-26T15:24:11;14.05;;;8.63;;
4837;SDS011;2433;48.768;9.154;2023-01-26T15:26:38;12.70;;;6.60;;
4837;SDS011;2433;48.768;9.154;2023-01-26T15:29:04;16.00;;;6.90;;
4837;SDS011;2433;48.768;9.154;2023-01-26T15:31:40;15.27;;;8.60;;
4837;SDS011;2433;48.768;9.154;2023-01-26T15:34:25;11.93;;;7.45;;
4837;SDS011;2433;48.768;9.154;2023-01-26T15:37:02;13.23;;;6.55;;
4837;SDS011;2433;48.768;9.154;2023-01-26T15:40:03;17.45;;;9.75;;
4837;SDS011;2433;48.768;9.154;2023-01-26T15:42:29;15.32;;;6.95;;
4837;SDS011;2433;48.768;9.154;2023-01-26T15:44:55;18.00;;;9.13;;
4837;SDS011;2433;48.768;9.154;2023-01-26T15:47:21;17.90;;;8.13;;
4837;SDS011;2433;48.768;9.154;2023-01-26T15:49:46;18.90;;;10.73;;
4837;SDS011;2433;48.768;9.154;2023-01-26T15:52:16;13.40;;;7.23;;
4837;SDS011;2433;48.768;9.154;2023-01-26T15:54:43;20.67;;;10.05;;
4837;SDS011;2433;48.768;9.154;2023-01-26T15:57:12;14.33;;;8.83;;
4837;SDS011;2433;48.768;9.154;2023-01-26T15:59:38;12.90;;;8.00;;
4837;SDS011;2433;48.768;9.154;2023-01-26T16:02:09;19.10;;;8.40;;
4837;SDS011;2433;48.768;9.154;2023-01-26T16:04:38;18.48;;;9.73;;
4837;SDS011;2433;48.768;9.154;2023-01-26T16:07:04;16.00;;;8.17;;
4837;SDS011;2433;48.768;9.154;2023-01-26T16:09:34;14.18;;;8.05;;
4837;SDS011;2433;48.768;9.154;2023-01-26T16:11:59;15.60;;;7.93;;
4837;SDS011;2433;48.768;9.154;2023-01-26T16:14:25;14.27;;;8.33;;
4837;SDS011;2433;48.768;9.154;2023-01-26T16:16:51;18.10;;;8.60;;
4837;SDS011;2433;48.768;9.154;2023-01-26T16:19:16;14.50;;;8.67;;
4837;SDS011;2433;48.768;9.154;2023-01-26T16:21:43;12.65;;;8.70;;
4837;SDS011;2433;48.768;9.154;2023-01-26T16:24:09;16.88;;;8.00;;
4837;SDS011;2433;48.768;9.154;2023-01-26T16:26:35;14.73;;;8.52;;
4837;SDS011;2433;48.768;9.154;2023-01-26T16:29:01;13.73;;;8.20;;
4837;SDS011;2433;48.768;9.154;2023-01-26T16:31:28;15.23;;;8.70;;
4837;SDS011;2433;48.768;9.154;2023-01-26T16:33:58;13.90;;;8.73;;
4837;SDS011;2433;48.768;9.154;2023-01-26T16:36:25;15.98;;;9.70;;
4837;SDS011;2433;48.768;9.154;2023-01-26T16:38:50;20.73;;;8.90;;
4837;SDS011;2433;48.768;9.154;2023-01-26T16:41:30;22.37;;;11.37;;
4837;SDS011;2433;48.768;9.154;2023-01-26T16:43:57;20.52;;;8.93;;
4837;SDS011;2433;48.768;9.154;2023-01-26T16:46:23;16.95;;;8.80;;
4837;SDS011;2433;48.768;9.154;2023-01-26T16:48:50;17.33;;;10.38;;
4837;SDS011;2433;48.768;9.154;2023-01-26T16:51:28;23.47;;;12.97;;
4837;SDS011;2433;48.768;9.154;2023-01-26T16:53:55;15.95;;;8.63;;
4837;SDS011;2433;48.768;9.154;2023-01-26T16:56:22;22.33;;;10.40;;
4837;SDS011;2433;48.768;9.154;2023-01-26T16:58:50;24.83;;;10.38;;
4837;SDS011;2433;48.768;9.154;2023-01-26T17:01:17;13.73;;;7.77;;
4837;SDS011;2433;48.768;9.154;2023-01-26T17:03:46;21.42;;;11.30;;